createdAt,value
2023-05-22T00:02:57.439Z,52.00
2023-05-22T00:06:00.755Z,52.10
2023-05-22T00:09:04.051Z,52.30
2023-05-22T00:12:08.032Z,52.20
2023-05-22T00:15:13.385Z,52.20
2023-05-22T00:18:16.535Z,52.20
2023-05-22T00:21:19.909Z,52.60
2023-05-22T00:24:22.986Z,52.40
2023-05-22T00:27:26.064Z,52.40
2023-05-22T00:30:30.641Z,52.40
2023-05-22T00:33:34.169Z,52.30
2023-05-22T00:36:38.690Z,52.30
2023-05-22T00:39:41.734Z,52.40
2023-05-22T00:42:45.023Z,52.70
2023-05-22T00:45:49.415Z,52.70
2023-05-22T00:48:52.934Z,52.80
2023-05-22T00:51:56.445Z,52.90
2023-05-22T00:55:01.167Z,52.70
2023-05-22T00:58:07.887Z,52.70
2023-05-22T01:01:13.339Z,52.70
2023-05-22T01:04:18.480Z,52.70
2023-05-22T01:07:21.666Z,52.90
2023-05-22T01:10:25.110Z,52.80
2023-05-22T01:13:35.391Z,53.30
2023-05-22T01:16:51.824Z,53.10
2023-05-22T01:20:07.581Z,52.80
2023-05-22T01:23:42.271Z,52.50
2023-05-22T01:27:07.258Z,52.80
2023-05-22T01:30:30.018Z,52.90
2023-05-22T01:33:43.172Z,52.80
2023-05-22T01:36:47.740Z,52.70
2023-05-22T01:39:52.952Z,52.60
2023-05-22T01:42:56.514Z,52.70
2023-05-22T01:46:01.523Z,52.80
2023-05-22T01:49:06.363Z,52.80
2023-05-22T01:52:14.979Z,52.90
2023-05-22T01:55:29.590Z,52.90
2023-05-22T01:58:38.838Z,53.10
2023-05-22T02:01:44.583Z,52.90
2023-05-22T02:04:56.878Z,53.10
2023-05-22T02:08:03.305Z,53.40
2023-05-22T02:11:07.232Z,53.30
2023-05-22T02:14:12.194Z,53.50
2023-05-22T02:17:18.076Z,53.50
2023-05-22T02:20:23.002Z,53.90
2023-05-22T02:23:26.254Z,53.80
2023-05-22T02:26:30.008Z,53.60
2023-05-22T02:29:33.123Z,53.70
2023-05-22T02:32:36.231Z,53.70
2023-05-22T02:35:40.748Z,54.00
2023-05-22T02:38:43.869Z,53.90
2023-05-22T02:41:47.252Z,54.00
2023-05-22T02:44:50.453Z,54.00
2023-05-22T02:47:53.575Z,54.10
2023-05-22T02:50:58.035Z,54.10
2023-05-22T02:54:01.096Z,54.40
2023-05-22T02:57:04.391Z,54.40
2023-05-22T03:00:11.716Z,54.40
2023-05-22T03:03:18.045Z,54.40
2023-05-22T03:06:23.483Z,54.70
2023-05-22T03:09:26.642Z,54.80
2023-05-22T03:12:29.977Z,54.70
2023-05-22T03:15:33.093Z,54.80
2023-05-22T03:18:37.229Z,55.00
2023-05-22T03:21:44.012Z,55.00
2023-05-22T03:24:47.065Z,54.90
2023-05-22T03:27:50.260Z,55.30
2023-05-22T03:30:53.653Z,55.20
2023-05-22T03:33:56.772Z,55.40
2023-05-22T03:37:01.142Z,55.20
2023-05-22T03:40:05.936Z,55.50
2023-05-22T03:43:10.735Z,55.40
2023-05-22T03:46:14.346Z,55.10
2023-05-22T03:49:17.521Z,55.30
2023-05-22T03:52:23.045Z,55.20
2023-05-22T03:55:26.636Z,55.30
2023-05-22T03:58:31.515Z,55.20
2023-05-22T04:01:34.642Z,55.40
2023-05-22T04:04:38.419Z,55.40
2023-05-22T04:07:43.321Z,55.70
2023-05-22T04:10:46.759Z,55.50
2023-05-22T04:13:51.844Z,55.70
2023-05-22T04:16:55.067Z,55.60
2023-05-22T04:19:58.540Z,55.70
2023-05-22T04:23:03.328Z,55.90
2023-05-22T04:26:08.872Z,55.70
2023-05-22T04:29:16.130Z,55.70
2023-05-22T04:32:21.847Z,55.60
2023-05-22T04:35:24.945Z,55.70
2023-05-22T04:38:29.807Z,55.80
2023-05-22T04:41:34.173Z,55.30
2023-05-22T04:44:38.243Z,54.90
2023-05-22T04:47:42.327Z,55.30
2023-05-22T04:50:46.313Z,55.40
2023-05-22T04:53:52.263Z,54.90
2023-05-22T04:56:55.480Z,54.80
2023-05-22T04:59:58.712Z,54.80
2023-05-22T05:03:02.127Z,55.00
2023-05-22T05:06:05.625Z,54.40
2023-05-22T05:09:10.322Z,54.50
2023-05-22T05:12:13.771Z,54.40
2023-05-22T05:15:16.943Z,54.40
2023-05-22T05:18:20.511Z,54.20
2023-05-22T05:21:24.499Z,54.20
2023-05-22T05:24:28.977Z,54.30
2023-05-22T05:27:32.068Z,54.30
2023-05-22T05:30:35.357Z,54.30
2023-05-22T05:33:38.399Z,54.40
2023-05-22T05:36:42.723Z,54.20
2023-05-22T05:39:47.244Z,54.50
2023-05-22T05:42:50.300Z,54.60
2023-05-22T05:45:53.466Z,55.00
2023-05-22T05:48:56.794Z,55.00
2023-05-22T05:52:00.122Z,54.50
2023-05-22T05:55:04.735Z,54.00
2023-05-22T05:58:07.863Z,53.70
2023-05-22T06:01:11.848Z,53.40
2023-05-22T06:04:15.539Z,53.20
2023-05-22T06:07:18.690Z,52.60
2023-05-22T06:10:23.356Z,51.90
2023-05-22T06:13:26.528Z,52.00
2023-05-22T06:16:30.079Z,51.20
2023-05-22T06:19:33.319Z,51.20
2023-05-22T06:22:36.673Z,51.30
2023-05-22T06:25:41.716Z,50.90
2023-05-22T06:33:00.937Z,50.90
2023-05-22T06:36:04.508Z,51.60
2023-05-22T06:39:08.785Z,51.50
2023-05-22T06:42:13.293Z,51.60
2023-05-22T06:45:19.645Z,51.40
2023-05-22T06:48:23.004Z,50.80
2023-05-22T06:51:34.497Z,51.10
2023-05-22T06:54:37.661Z,50.70
2023-05-22T06:57:42.290Z,50.40
2023-05-22T07:00:45.582Z,50.40
2023-05-22T07:03:48.753Z,50.50
2023-05-22T07:06:52.192Z,51.00
2023-05-22T07:09:55.257Z,50.60
2023-05-22T07:12:59.804Z,50.60
2023-05-22T07:16:02.971Z,50.70
2023-05-22T07:19:06.636Z,50.70
2023-05-22T07:22:09.784Z,50.40
2023-05-22T07:25:13.023Z,50.60
2023-05-22T07:28:17.865Z,50.30
2023-05-22T07:31:21.162Z,50.60
2023-05-22T07:34:29.890Z,51.10
2023-05-22T07:37:33.096Z,50.50
2023-05-22T07:40:36.227Z,51.10
2023-05-22T07:43:40.878Z,51.20
2023-05-22T07:46:44.515Z,50.80
2023-05-22T07:49:47.714Z,50.90
2023-05-22T07:52:51.357Z,51.60
2023-05-22T07:55:54.463Z,51.20
2023-05-22T07:58:59.041Z,50.90
2023-05-22T08:02:02.792Z,50.80
2023-05-22T08:05:06.890Z,50.50
2023-05-22T08:08:10.397Z,51.30
2023-05-22T08:11:13.739Z,51.00
2023-05-22T08:14:18.271Z,51.20
2023-05-22T08:17:21.472Z,50.60
2023-05-22T08:20:24.753Z,51.10
2023-05-22T08:23:28.017Z,49.60
2023-05-22T08:26:33.257Z,49.80
2023-05-22T08:29:37.809Z,50.30
2023-05-22T08:32:41.048Z,49.70
2023-05-22T08:35:44.260Z,49.30
2023-05-22T08:38:47.483Z,49.60
2023-05-22T08:41:50.651Z,48.90
2023-05-22T08:44:58.082Z,48.80
2023-05-22T08:48:06.424Z,48.90
2023-05-22T08:51:14.703Z,49.80
2023-05-22T08:54:20.157Z,48.90
2023-05-22T08:57:24.360Z,48.40
2023-05-22T09:00:29.719Z,48.50
2023-05-22T09:03:34.331Z,48.20
2023-05-22T09:06:39.069Z,48.00
2023-05-22T09:09:42.724Z,47.90
2023-05-22T09:13:07.943Z,46.80
2023-05-22T09:16:13.973Z,47.10
2023-05-22T09:19:17.661Z,46.90
2023-05-22T09:22:22.394Z,46.90
2023-05-22T09:25:29.174Z,47.10
2023-05-22T09:28:35.228Z,47.70
2023-05-22T09:31:44.725Z,47.20
2023-05-22T09:34:48.257Z,47.10
2023-05-22T09:37:51.787Z,46.80
2023-05-22T09:40:55.809Z,46.30
2023-05-22T09:44:01.145Z,46.20
2023-05-22T09:47:07.841Z,46.20
2023-05-22T09:50:11.760Z,47.40
2023-05-22T09:53:18.496Z,46.50
2023-05-22T09:56:34.874Z,46.70
2023-05-22T09:59:43.779Z,46.50
2023-05-22T10:02:50.292Z,46.80
2023-05-22T10:05:56.079Z,46.50
2023-05-22T10:09:05.111Z,45.80
2023-05-22T10:12:10.865Z,46.10
2023-05-22T10:15:15.152Z,46.30
2023-05-22T10:18:19.867Z,46.20
2023-05-22T10:21:25.733Z,46.10
2023-05-22T10:24:29.914Z,46.00
2023-05-22T10:27:33.187Z,45.50
2023-05-22T10:30:43.777Z,45.30
2023-05-22T10:33:53.782Z,45.20
2023-05-22T10:37:18.058Z,45.90
2023-05-22T10:40:30.275Z,45.30
2023-05-22T10:43:33.829Z,45.90
2023-05-22T10:46:38.214Z,44.80
2023-05-22T10:49:45.484Z,44.60
2023-05-22T10:52:49.102Z,44.50
2023-05-22T10:55:53.457Z,44.80
2023-05-22T10:59:02.678Z,44.50
2023-05-22T11:02:09.025Z,44.50
2023-05-22T11:05:37.686Z,44.20
2023-05-22T11:08:41.164Z,44.00
2023-05-22T11:11:46.334Z,43.50
2023-05-22T11:14:54.414Z,43.70
2023-05-22T11:18:04.419Z,43.50
2023-05-22T11:21:13.687Z,44.60
2023-05-22T11:24:18.910Z,43.20
2023-05-22T11:27:22.163Z,43.60
2023-05-22T11:30:27.917Z,42.80
2023-05-22T11:33:31.318Z,42.80
2023-05-22T11:36:37.496Z,42.80
2023-05-22T11:39:40.628Z,42.90
2023-05-22T11:42:44.028Z,42.40
2023-05-22T11:45:47.145Z,42.10
2023-05-22T11:48:50.381Z,42.00
2023-05-22T11:51:55.292Z,41.70
2023-05-22T11:54:58.430Z,41.80
2023-05-22T11:58:02.943Z,42.20
2023-05-22T12:01:06.813Z,42.20
2023-05-22T12:04:10.048Z,42.50
2023-05-22T12:07:15.192Z,41.70
2023-05-22T12:10:18.363Z,41.70
2023-05-22T12:13:25.836Z,41.30
2023-05-22T12:16:29.199Z,41.00
2023-05-22T12:19:34.162Z,41.50
2023-05-22T12:22:45.150Z,41.10
2023-05-22T12:25:48.623Z,41.20
2023-05-22T12:28:55.535Z,41.10
2023-05-22T12:32:03.938Z,40.90
2023-05-22T12:35:08.057Z,41.40
2023-05-22T12:38:13.573Z,41.60
2023-05-22T12:41:16.830Z,41.40
2023-05-22T12:44:19.913Z,41.10
2023-05-22T12:47:24.519Z,41.20
2023-05-22T12:50:27.686Z,41.00
2023-05-22T12:53:32.467Z,41.00
2023-05-22T12:56:35.705Z,40.90
2023-05-22T12:59:38.816Z,40.90
2023-05-22T13:02:42.305Z,40.70
2023-05-22T13:05:46.410Z,40.40
2023-05-22T13:08:51.104Z,40.40
2023-05-22T13:11:54.311Z,40.30
2023-05-22T13:14:57.478Z,40.20
2023-05-22T13:18:08.119Z,39.50
2023-05-22T13:21:12.577Z,39.50
2023-05-22T13:24:17.206Z,39.10
2023-05-22T13:27:20.542Z,39.40
2023-05-22T13:30:23.598Z,39.00
2023-05-22T13:33:26.861Z,38.80
2023-05-22T13:36:30.012Z,39.40
2023-05-22T13:39:34.767Z,38.90
2023-05-22T13:42:38.428Z,39.00
2023-05-22T13:45:41.962Z,38.90
2023-05-22T13:48:45.285Z,38.60
2023-05-22T13:51:48.356Z,38.60
2023-05-22T13:54:52.872Z,38.70
2023-05-22T13:57:56.209Z,38.80
2023-05-22T14:00:59.372Z,38.40
2023-05-22T14:04:02.495Z,38.40
2023-05-22T14:07:06.019Z,38.20
2023-05-22T14:10:13.048Z,39.00
2023-05-22T14:13:16.189Z,38.10
2023-05-22T14:16:19.304Z,38.30
2023-05-22T14:19:22.503Z,38.20
2023-05-22T14:22:25.698Z,38.00
2023-05-22T14:25:30.186Z,37.90
2023-05-22T14:28:33.912Z,38.20
2023-05-22T14:31:50.443Z,38.00
2023-05-22T14:34:54.741Z,38.20
2023-05-22T14:37:57.826Z,38.30
2023-05-22T14:41:02.705Z,38.40
2023-05-22T14:44:06.633Z,38.00
2023-05-22T14:47:09.747Z,37.70
2023-05-22T14:50:19.544Z,37.90
2023-05-22T14:53:23.998Z,37.80
2023-05-22T14:56:28.437Z,38.00
2023-05-22T14:59:31.852Z,38.20
2023-05-22T15:02:34.953Z,37.60
2023-05-22T15:05:38.093Z,37.90
2023-05-22T15:08:41.319Z,37.90
2023-05-22T15:11:49.058Z,37.80
2023-05-22T15:14:52.049Z,37.10
2023-05-22T15:17:55.606Z,37.10
2023-05-22T15:20:58.739Z,36.70
2023-05-22T15:24:01.827Z,36.60
2023-05-22T15:27:07.972Z,36.90
2023-05-22T15:30:12.143Z,36.80
2023-05-22T15:33:15.803Z,37.60
2023-05-22T15:36:19.024Z,37.20
2023-05-22T15:39:22.128Z,37.20
2023-05-22T15:42:26.525Z,37.50
2023-05-22T15:45:30.506Z,38.00
2023-05-22T15:48:33.546Z,37.70
2023-05-22T15:51:37.208Z,37.50
2023-05-22T15:54:40.201Z,37.80
2023-05-22T15:57:44.641Z,37.40
2023-05-22T16:00:47.703Z,37.60
2023-05-22T16:03:50.865Z,37.80
2023-05-22T16:06:54.108Z,38.20
2023-05-22T16:09:57.123Z,38.00
2023-05-22T16:13:05.068Z,38.00
2023-05-22T16:16:08.339Z,38.20
2023-05-22T16:19:12.087Z,38.00
2023-05-22T16:22:15.339Z,38.30
2023-05-22T16:25:19.141Z,38.40
2023-05-22T16:28:23.547Z,38.60
2023-05-22T16:31:26.837Z,38.50
2023-05-22T16:34:31.837Z,38.80
2023-05-22T16:37:35.038Z,38.50
2023-05-22T16:40:38.117Z,39.00
2023-05-22T16:43:42.518Z,39.00
2023-05-22T16:46:45.841Z,39.20
2023-05-22T16:49:48.935Z,38.60
2023-05-22T16:52:52.046Z,38.90
2023-05-22T16:55:55.646Z,39.10
2023-05-22T16:59:00.188Z,39.10
2023-05-22T17:02:03.738Z,39.10
2023-05-22T17:05:08.444Z,39.10
2023-05-22T17:08:11.609Z,39.30
2023-05-22T17:11:14.724Z,39.60
2023-05-22T17:14:21.572Z,40.00
2023-05-22T17:17:24.651Z,39.70
2023-05-22T17:20:29.303Z,39.70
2023-05-22T17:23:32.353Z,39.60
2023-05-22T17:26:35.490Z,40.30
2023-05-22T17:29:39.851Z,40.00
2023-05-22T17:32:44.832Z,40.10
2023-05-22T17:35:48.019Z,39.80
2023-05-22T17:38:51.101Z,40.00
2023-05-22T17:41:54.157Z,40.30
2023-05-22T17:44:58.835Z,40.20
2023-05-22T17:48:01.893Z,40.20
2023-05-22T17:51:05.681Z,40.50
2023-05-22T17:54:09.318Z,41.00
2023-05-22T17:57:12.316Z,40.70
2023-05-22T18:00:18.282Z,40.70
2023-05-22T18:03:21.488Z,40.70
2023-05-22T18:06:25.067Z,40.90
2023-05-22T18:09:28.086Z,41.00
2023-05-22T18:12:32.282Z,41.10
2023-05-22T18:15:36.832Z,41.10
2023-05-22T18:18:39.943Z,41.10
2023-05-22T18:21:43.591Z,41.50
2023-05-22T18:24:46.744Z,41.50
2023-05-22T18:27:49.890Z,41.70
2023-05-22T18:30:54.922Z,41.80
2023-05-22T18:33:57.960Z,42.70
2023-05-22T18:37:01.190Z,42.30
2023-05-22T18:40:06.447Z,42.10
2023-05-22T18:43:09.468Z,42.10
2023-05-22T18:46:14.077Z,42.30
2023-05-22T18:49:17.097Z,42.30
2023-05-22T18:52:20.212Z,42.60
2023-05-22T18:55:23.993Z,42.90
2023-05-22T18:58:28.046Z,42.90
2023-05-22T19:01:33.073Z,43.00
2023-05-22T19:04:36.320Z,43.30
2023-05-22T19:07:40.975Z,43.20
2023-05-22T19:10:44.136Z,43.30
2023-05-22T19:13:47.313Z,43.30
2023-05-22T19:16:51.841Z,43.20
2023-05-22T19:19:54.983Z,43.30
2023-05-22T19:22:59.797Z,43.60
2023-05-22T19:26:03.798Z,43.80
2023-05-22T19:29:07.252Z,44.00
2023-05-22T19:32:11.709Z,44.10
2023-05-22T19:35:14.830Z,44.30
2023-05-22T19:38:18.042Z,44.10
2023-05-22T19:41:22.816Z,44.10
2023-05-22T19:44:26.012Z,44.80
2023-05-22T19:47:30.440Z,44.30
2023-05-22T19:50:35.479Z,44.80
2023-05-22T19:53:38.641Z,44.60
2023-05-22T19:56:41.776Z,45.00
2023-05-22T19:59:45.851Z,45.20
2023-05-22T20:02:50.491Z,45.10
2023-05-22T20:05:54.247Z,45.30
2023-05-22T20:08:57.376Z,45.50
2023-05-22T20:12:00.438Z,45.70
2023-05-22T20:15:04.344Z,45.90
2023-05-22T20:18:09.021Z,45.80
2023-05-22T20:21:12.081Z,45.90
2023-05-22T20:24:18.890Z,46.00
2023-05-22T20:27:23.087Z,46.90
2023-05-22T20:30:26.250Z,46.70
2023-05-22T20:33:31.013Z,46.70
2023-05-22T20:36:35.024Z,46.70
2023-05-22T20:39:38.156Z,46.60
2023-05-22T20:42:42.520Z,46.60
2023-05-22T20:45:47.060Z,46.80
2023-05-22T20:48:52.004Z,46.70
2023-05-22T20:51:55.467Z,46.90
2023-05-22T20:54:58.907Z,46.90
2023-05-22T20:58:02.296Z,47.20
2023-05-22T21:01:06.148Z,47.30
2023-05-22T21:04:10.803Z,47.30
2023-05-22T21:07:14.279Z,47.40
2023-05-22T21:10:17.658Z,47.50
2023-05-22T21:13:20.937Z,47.60
2023-05-22T21:16:26.270Z,47.60
2023-05-22T21:19:31.284Z,47.80
2023-05-22T21:22:34.674Z,47.90
2023-05-22T21:25:37.989Z,47.90
2023-05-22T21:28:41.317Z,48.20
2023-05-22T21:31:44.629Z,48.00
2023-05-22T21:34:49.307Z,47.90
2023-05-22T21:37:53.916Z,48.20
2023-05-22T21:40:57.038Z,48.20
2023-05-22T21:44:00.573Z,48.50
2023-05-22T21:47:03.976Z,48.60
2023-05-22T21:50:09.588Z,48.50
2023-05-22T21:53:13.060Z,48.30
2023-05-22T21:56:16.428Z,48.40
2023-05-22T21:59:19.556Z,48.60
2023-05-22T22:02:22.911Z,48.80
2023-05-22T22:05:27.654Z,48.80
2023-05-22T22:08:30.768Z,48.90
2023-05-22T22:11:34.218Z,48.90
2023-05-22T22:14:37.566Z,48.90
2023-05-22T22:17:40.807Z,49.10
2023-05-22T22:20:45.865Z,48.90
2023-05-22T22:23:50.469Z,49.30
2023-05-22T22:26:53.646Z,49.00
2023-05-22T22:29:56.716Z,49.60
2023-05-22T22:32:59.840Z,49.60
2023-05-22T22:36:04.270Z,49.50
2023-05-22T22:39:07.390Z,49.40
2023-05-22T22:42:10.564Z,49.40
2023-05-22T22:45:14.770Z,49.60
2023-05-22T22:48:22.256Z,49.60
2023-05-22T22:51:27.016Z,49.80
2023-05-22T22:54:30.222Z,49.60
2023-05-22T22:57:33.973Z,49.50
2023-05-22T23:00:37.590Z,49.60
2023-05-22T23:03:40.756Z,49.40
2023-05-22T23:06:47.334Z,49.70
2023-05-22T23:09:50.715Z,49.60
2023-05-22T23:12:54.227Z,49.80
2023-05-22T23:15:57.418Z,49.70
2023-05-22T23:19:00.717Z,49.70
2023-05-22T23:22:05.843Z,49.70
2023-05-22T23:25:09.500Z,49.70
2023-05-22T23:28:12.585Z,49.70
2023-05-22T23:31:16.384Z,49.80
2023-05-22T23:34:20.739Z,50.10
2023-05-22T23:37:25.453Z,50.20
2023-05-22T23:40:28.965Z,49.90
2023-05-22T23:43:32.066Z,49.80
2023-05-22T23:46:35.801Z,49.80
2023-05-22T23:49:38.875Z,49.90
2023-05-22T23:52:43.402Z,50.00
2023-05-22T23:55:46.657Z,50.20
2023-05-22T23:58:49.729Z,50.50
